Time;durP1;ratioP1;P1;durP2;ratioP2;P2;SDS_P1;SDS_P2;PMS_P1;PMS_P2;Temp;Humidity;BMP_temperature;BMP_pressure;BME280_temperature;BME280_humidity;BME280_pressure;Samples;Min_cycle;Max_cycle;Signal;HPM_P1;HPM_P2
2023/07/13 00:01:16;;;;;;;6.10;2.10;;;;;;;15.66;87.24;101323.94;5031642;28;20025;-70
2023/07/13 00:03:42;;;;;;;3.80;1.65;;;;;;;15.64;86.68;101328.72;5048211;28;20028;-70
2023/07/13 00:06:08;;;;;;;4.80;2.03;;;;;;;15.61;86.08;101335.34;5029123;28;20116;-70
2023/07/13 00:08:34;;;;;;;4.22;2.65;;;;;;;15.56;87.39;101327.97;5011730;28;20063;-70
2023/07/13 00:11:01;;;;;;;10.40;2.90;;;;;;;15.61;86.59;101329.16;5011539;28;20435;-70
2023/07/13 00:13:27;;;;;;;9.45;3.55;;;;;;;15.61;86.41;101326.47;5011375;28;20044;-70
2023/07/13 00:15:53;;;;;;;4.97;2.17;;;;;;;15.56;86.53;101324.44;5029193;28;20543;-71
2023/07/13 00:18:19;;;;;;;5.95;2.55;;;;;;;15.53;88.18;101333.75;5030949;28;20024;-70
2023/07/13 00:20:45;;;;;;;7.30;2.67;;;;;;;15.55;86.88;101325.47;5032981;28;20022;-70
2023/07/13 00:23:10;;;;;;;8.82;2.38;;;;;;;15.50;87.73;101328.81;5032842;28;20029;-70
2023/07/13 00:25:36;;;;;;;5.53;2.15;;;;;;;15.44;87.80;101329.69;5032643;28;20033;-70
2023/07/13 00:28:02;;;;;;;8.90;2.55;;;;;;;15.45;88.25;101336.69;5015132;28;20029;-70
2023/07/13 00:30:27;;;;;;;7.07;2.15;;;;;;;15.47;88.39;101340.00;5032505;28;20026;-70
2023/07/13 00:32:53;;;;;;;8.68;2.17;;;;;;;15.48;88.64;101336.28;5032764;28;20056;-70
2023/07/13 00:35:19;;;;;;;8.45;2.58;;;;;;;15.40;88.23;101322.28;5032609;28;20038;-70
2023/07/13 00:37:44;;;;;;;4.10;2.35;;;;;;;15.43;88.48;101321.84;5032588;28;20093;-70
2023/07/13 00:40:12;;;;;;;6.88;2.83;;;;;;;15.43;89.22;101325.38;5032176;28;20116;-70
2023/07/13 00:42:38;;;;;;;2.60;1.80;;;;;;;15.39;89.26;101326.81;5051327;28;20029;-70
2023/07/13 00:45:12;;;;;;;5.03;2.78;;;;;;;15.44;89.46;101331.56;5033434;28;20025;-71
2023/07/13 00:47:39;;;;;;;6.82;2.35;;;;;;;15.42;90.09;101339.00;5051537;28;20025;-70
2023/07/13 00:50:10;;;;;;;12.07;2.33;;;;;;;15.38;90.42;101332.41;5051919;28;20032;-70
2023/07/13 00:52:37;;;;;;;4.50;1.80;;;;;;;15.40;89.89;101338.41;5051280;28;20032;-70
2023/07/13 00:55:03;;;;;;;9.00;2.30;;;;;;;15.34;90.88;101345.47;5051404;28;20376;-70
2023/07/13 00:57:28;;;;;;;3.72;2.47;;;;;;;15.30;90.43;101342.41;5050870;28;20049;-70
2023/07/13 00:59:58;;;;;;;5.25;2.03;;;;;;;15.32;90.94;101350.22;5051130;28;20049;-70
2023/07/13 01:02:25;;;;;;;4.88;2.17;;;;;;;15.31;90.75;101338.66;5051036;28;20090;-70
2023/07/13 01:04:50;;;;;;;6.57;1.60;;;;;;;15.26;90.96;101343.84;5051122;28;20033;-70
2023/07/13 01:07:17;;;;;;;3.70;1.85;;;;;;;15.24;91.55;101348.63;5051533;28;20028;-70
2023/07/13 01:09:44;;;;;;;7.63;2.83;;;;;;;15.25;91.24;101338.72;5050990;28;20121;-70
2023/07/13 01:12:10;;;;;;;9.40;2.70;;;;;;;15.23;91.43;101330.03;5050742;28;20044;-70
2023/07/13 01:14:35;;;;;;;5.40;2.88;;;;;;;15.24;91.74;101334.34;5050954;28;20021;-70
2023/07/13 01:17:01;;;;;;;8.23;2.38;;;;;;;15.19;91.91;101343.06;5050779;28;20488;-70
2023/07/13 01:19:39;;;;;;;12.13;3.95;;;;;;;15.20;91.94;101339.34;5050802;28;20079;-70
2023/07/13 01:22:11;;;;;;;10.07;2.42;;;;;;;15.12;92.45;101337.75;5050826;28;20025;-70
2023/07/13 01:24:37;;;;;;;9.05;3.60;;;;;;;15.14;92.61;101342.88;5050647;28;20065;-70
2023/07/13 01:27:05;;;;;;;4.07;1.85;;;;;;;15.17;92.40;101344.31;5050685;28;20031;-70
2023/07/13 01:29:33;;;;;;;7.20;2.10;;;;;;;15.15;92.65;101343.72;5049779;28;20958;-70
2023/07/13 01:31:59;;;;;;;6.97;2.60;;;;;;;15.06;93.11;101337.75;5050608;28;20423;-70
2023/07/13 01:34:26;;;;;;;6.90;1.73;;;;;;;15.09;93.59;101342.69;5050635;28;20036;-70
2023/07/13 01:36:53;;;;;;;2.97;1.92;;;;;;;15.09;93.24;101348.91;5050100;28;20499;-70
2023/07/13 01:39:22;;;;;;;7.53;1.88;;;;;;;15.11;93.16;101346.00;5050570;28;20044;-70
2023/07/13 01:41:47;;;;;;;8.85;2.13;;;;;;;15.06;93.59;101338.59;5050263;28;20028;-70
2023/07/13 01:44:13;;;;;;;3.83;1.73;;;;;;;15.06;93.90;101338.59;5050268;28;20079;-70
2023/07/13 01:46:38;;;;;;;7.55;3.45;;;;;;;15.10;93.62;101342.50;5050293;28;20106;-70
2023/07/13 01:49:03;;;;;;;8.02;2.20;;;;;;;15.08;94.55;101341.88;5013184;28;20045;-70
2023/07/13 01:51:29;;;;;;;5.43;2.22;;;;;;;14.97;94.26;101339.06;5031107;28;20033;-70
2023/07/13 01:53:54;;;;;;;7.00;2.30;;;;;;;15.07;94.96;101352.84;5031157;28;20377;-70
2023/07/13 01:56:20;;;;;;;9.65;2.13;;;;;;;15.05;94.90;101349.56;5030940;28;20116;-70
2023/07/13 01:58:46;;;;;;;6.68;2.00;;;;;;;15.03;95.34;101347.06;5013305;28;20033;-70
2023/07/13 02:01:11;;;;;;;4.95;2.30;;;;;;;15.02;95.33;101347.31;5030933;28;20029;-70
2023/07/13 02:03:37;;;;;;;3.80;2.30;;;;;;;15.02;95.78;101353.50;5031000;28;20041;-71
2023/07/13 02:06:02;;;;;;;9.30;3.38;;;;;;;14.97;95.66;101347.13;5030658;28;20044;-70
2023/07/13 02:08:28;;;;;;;5.53;1.83;;;;;;;14.96;96.19;101346.28;5030667;28;20043;-71
2023/07/13 02:10:53;;;;;;;6.57;2.50;;;;;;;14.96;96.48;101340.94;5030703;28;20492;-70
2023/07/13 02:13:19;;;;;;;11.90;3.22;;;;;;;14.99;96.40;101356.59;5030578;28;20113;-70
2023/07/13 02:15:44;;;;;;;5.93;3.08;;;;;;;14.95;96.31;101347.31;5030880;28;20436;-70
2023/07/13 02:18:09;;;;;;;6.65;2.65;;;;;;;14.90;96.76;101358.69;5030629;28;20354;-70
2023/07/13 02:20:35;;;;;;;7.60;2.70;;;;;;;14.94;96.88;101360.97;5031681;28;20147;-70
2023/07/13 02:23:00;;;;;;;6.20;2.30;;;;;;;14.92;96.98;101352.31;5031493;28;20059;-70
2023/07/13 02:25:26;;;;;;;6.93;2.65;;;;;;;14.87;97.37;101342.19;5049466;28;20120;-70
2023/07/13 02:27:52;;;;;;;9.18;2.47;;;;;;;14.86;97.46;101348.59;5049325;28;20048;-70
2023/07/13 02:30:18;;;;;;;5.47;2.28;;;;;;;14.84;97.23;101338.06;5049451;28;20070;-70
2023/07/13 02:32:44;;;;;;;4.50;2.25;;;;;;;14.85;97.62;101345.06;5049336;28;20036;-70
2023/07/13 02:35:10;;;;;;;7.88;2.60;;;;;;;14.79;97.94;101345.13;5049453;28;20057;-70
2023/07/13 02:37:35;;;;;;;4.40;1.92;;;;;;;14.80;98.63;101354.81;5049062;28;20072;-70
2023/07/13 02:40:04;;;;;;;8.10;2.92;;;;;;;14.77;99.03;101355.25;5049221;28;20048;-70
2023/07/13 02:42:30;;;;;;;8.82;2.47;;;;;;;14.78;98.97;101354.22;5032019;28;20033;-70
2023/07/13 02:44:55;;;;;;;8.82;2.38;;;;;;;14.78;99.33;101354.22;5049152;28;20498;-70
2023/07/13 02:47:21;;;;;;;6.90;1.98;;;;;;;14.73;99.59;101354.03;5049151;28;20392;-70
2023/07/13 02:49:46;;;;;;;7.13;3.17;;;;;;;14.72;100.00;101358.56;5031295;28;20434;-70
2023/07/13 02:52:11;;;;;;;3.85;1.85;;;;;;;14.71;100.00;101359.59;5049215;28;20044;-70
2023/07/13 02:54:37;;;;;;;10.10;2.78;;;;;;;14.69;100.00;101361.66;5049051;28;20025;-70
2023/07/13 02:57:02;;;;;;;7.88;2.50;;;;;;;14.69;100.00;101362.47;5048903;28;20072;-70
2023/07/13 02:59:28;;;;;;;8.35;2.45;;;;;;;14.68;100.00;101357.34;5049064;28;20119;-70
2023/07/13 03:01:53;;;;;;;6.93;2.55;;;;;;;14.64;100.00;101362.28;5049050;28;20139;-70
2023/07/13 03:04:19;;;;;;;9.07;3.10;;;;;;;14.60;100.00;101362.94;5049015;28;20033;-70
2023/07/13 03:06:45;;;;;;;6.72;1.88;;;;;;;14.58;100.00;101360.47;5048885;28;20120;-70
2023/07/13 03:09:12;;;;;;;5.45;2.17;;;;;;;14.58;100.00;101365.81;5048952;28;20024;-69
2023/07/13 03:11:38;;;;;;;7.45;2.85;;;;;;;14.56;100.00;101367.06;5048736;28;20038;-70
2023/07/13 03:14:03;;;;;;;5.18;2.50;;;;;;;14.53;100.00;101357.59;5048750;28;20039;-70
2023/07/13 03:16:29;;;;;;;4.18;2.08;;;;;;;14.55;100.00;101370.81;5048654;28;20051;-70
2023/07/13 03:18:54;;;;;;;9.75;2.45;;;;;;;14.54;100.00;101369.13;5030853;28;20025;-70
2023/07/13 03:21:20;;;;;;;6.90;3.05;;;;;;;14.53;100.00;101371.00;5048531;28;20040;-70
2023/07/13 03:23:45;;;;;;;9.50;2.90;;;;;;;14.52;100.00;101363.97;5048367;28;20029;-70
2023/07/13 03:26:17;;;;;;;8.32;3.47;;;;;;;14.52;100.00;101366.66;5029379;28;20033;-70
2023/07/13 03:28:42;;;;;;;5.53;2.75;;;;;;;14.52;100.00;101363.97;5029647;28;20083;-70
2023/07/13 03:31:17;;;;;;;11.50;4.00;;;;;;;14.50;100.00;101362.53;5029578;28;20432;-70
2023/07/13 03:33:43;;;;;;;8.77;2.90;;;;;;;14.48;100.00;101368.09;5011525;28;20499;-70
2023/07/13 03:36:21;;;;;;;5.72;2.70;;;;;;;14.45;100.00;101366.66;5048540;28;20064;-70
2023/07/13 03:38:52;;;;;;;8.10;2.88;;;;;;;14.47;100.00;101374.50;5048552;28;20121;-70
2023/07/13 03:41:17;;;;;;;4.80;2.25;;;;;;;14.48;100.00;101382.31;5048400;28;20025;-70
2023/07/13 03:43:43;;;;;;;4.55;2.08;;;;;;;14.47;100.00;101378.00;5048259;28;20032;-70
2023/07/13 03:46:09;;;;;;;10.05;3.58;;;;;;;14.45;100.00;101372.03;5048639;28;20033;-70
2023/07/13 03:48:34;;;;;;;7.15;3.78;;;;;;;14.50;100.00;101386.69;5030506;28;20090;-70
2023/07/13 03:51:00;;;;;;;9.20;2.83;;;;;;;14.48;100.00;101379.66;5048364;28;20025;-70
2023/07/13 03:53:25;;;;;;;7.88;2.83;;;;;;;14.46;100.00;101383.56;5050297;28;20120;-70
2023/07/13 03:55:51;;;;;;;9.75;3.55;;;;;;;14.47;100.00;101390.59;5034488;28;20037;-70
2023/07/13 03:58:34;;;;;;;6.57;2.60;;;;;;;14.44;100.00;101391.84;5052195;28;20041;-70
2023/07/13 04:01:02;;;;;;;8.23;2.55;;;;;;;14.47;100.00;101396.78;5034172;28;20037;-70
2023/07/13 04:03:28;;;;;;;4.90;2.58;;;;;;;14.47;100.00;101395.97;5052125;28;20423;-70
2023/07/13 04:05:59;;;;;;;15.75;3.42;;;;;;;14.49;100.00;101396.59;5052102;28;20036;-70
2023/07/13 04:08:25;;;;;;;6.77;2.67;;;;;;;14.48;100.00;101400.31;5034216;28;20102;-69
2023/07/13 04:10:50;;;;;;;5.57;2.47;;;;;;;14.48;100.00;101401.13;5032972;28;20813;-70
2023/07/13 04:13:16;;;;;;;10.85;3.50;;;;;;;14.48;100.00;101409.16;5033015;28;20037;-70
2023/07/13 04:15:41;;;;;;;9.98;4.07;;;;;;;14.53;100.00;101413.13;5032898;28;20057;-70
2023/07/13 04:18:07;;;;;;;8.65;3.00;;;;;;;14.54;100.00;101414.78;5032958;28;20017;-70
2023/07/13 04:20:32;;;;;;;10.32;3.65;;;;;;;14.52;100.00;101406.91;5032821;28;20029;-69
2023/07/13 04:22:58;;;;;;;6.63;3.00;;;;;;;14.59;100.00;101420.34;5032734;28;20037;-70
2023/07/13 04:25:23;;;;;;;7.05;3.22;;;;;;;14.64;100.00;101409.78;5032781;28;20033;-70
2023/07/13 04:27:49;;;;;;;9.02;3.42;;;;;;;14.65;100.00;101409.59;5044461;28;20039;-70
2023/07/13 04:30:14;;;;;;;15.02;4.40;;;;;;;14.69;100.00;101415.38;5051463;28;20044;-70
2023/07/13 04:32:40;;;;;;;8.95;3.30;;;;;;;14.71;100.00;101415.97;5051566;28;20029;-70
2023/07/13 04:35:05;;;;;;;10.73;3.22;;;;;;;14.69;100.00;101407.31;5051760;28;20064;-70
2023/07/13 04:37:31;;;;;;;11.65;3.65;;;;;;;14.79;100.00;101421.13;5051491;28;20028;-70
2023/07/13 04:39:56;;;;;;;13.15;3.92;;;;;;;14.81;100.00;101415.56;5051317;28;20036;-70
2023/07/13 04:42:22;;;;;;;10.95;3.13;;;;;;;14.89;100.00;101424.19;5051619;28;20056;-70
2023/07/13 04:44:51;;;;;;;10.48;3.58;;;;;;;14.92;100.00;101419.44;5051301;28;20029;-70
2023/07/13 04:47:19;;;;;;;14.00;4.28;;;;;;;14.94;100.00;101423.56;5051306;28;20079;-70
2023/07/13 04:49:45;;;;;;;8.80;3.53;;;;;;;14.96;100.00;101429.56;5051136;28;20814;-70
2023/07/13 04:52:11;;;;;;;15.90;4.13;;;;;;;15.04;100.00;101434.69;5050892;28;20105;-70
2023/07/13 04:54:37;;;;;;;14.60;5.10;;;;;;;15.05;100.00;101424.78;5050922;28;20488;-70
2023/07/13 04:57:06;;;;;;;14.80;5.70;;;;;;;15.13;100.00;101433.41;5050798;28;20131;-70
2023/07/13 04:59:31;;;;;;;15.48;5.80;;;;;;;15.17;100.00;101427.59;5042630;28;20021;-70
2023/07/13 05:01:57;;;;;;;12.98;5.50;;;;;;;15.23;100.00;101432.97;5048679;28;20036;-70
2023/07/13 05:04:22;;;;;;;18.70;5.90;;;;;;;15.27;100.00;101441.41;5049792;28;20033;-70
2023/07/13 05:06:47;;;;;;;19.40;6.68;;;;;;;15.27;100.00;101436.91;5050736;28;20033;-71
2023/07/13 05:09:13;;;;;;;23.33;7.10;;;;;;;15.32;100.00;101444.28;5032983;28;20064;-70
2023/07/13 05:11:39;;;;;;;19.05;7.53;;;;;;;15.34;100.00;101439.53;5050773;28;20057;-70
2023/07/13 05:14:04;;;;;;;19.48;6.68;;;;;;;15.42;100.00;101443.84;5050891;28;20102;-70
2023/07/13 05:16:30;;;;;;;23.55;7.45;;;;;;;15.44;100.00;101447.97;5050678;28;20083;-70
2023/07/13 05:18:55;;;;;;;19.48;6.50;;;;;;;15.47;100.00;101438.66;5050641;28;20032;-70
2023/07/13 05:21:20;;;;;;;20.52;7.88;;;;;;;15.51;100.00;101448.78;5032592;28;20029;-71
2023/07/13 05:23:47;;;;;;;18.08;7.25;;;;;;;15.52;100.00;101452.28;5050459;28;20040;-70
2023/07/13 05:26:12;;;;;;;19.20;8.00;;;;;;;15.60;100.00;101457.41;5050300;28;20122;-70
2023/07/13 05:28:38;;;;;;;22.38;7.03;;;;;;;15.58;100.00;101451.41;5050388;28;20032;-70
2023/07/13 05:31:04;;;;;;;19.42;7.65;;;;;;;15.67;100.00;101462.75;5039287;28;20037;-70
2023/07/13 05:33:30;;;;;;;19.27;8.50;;;;;;;15.67;100.00;101468.97;5031199;28;20037;-70
2023/07/13 05:35:56;;;;;;;21.58;8.85;;;;;;;15.72;100.00;101462.97;5031238;28;20033;-70
2023/07/13 05:38:21;;;;;;;22.10;8.82;;;;;;;15.75;100.00;101466.03;5031242;28;20025;-70
2023/07/13 05:40:47;;;;;;;22.90;8.25;;;;;;;15.80;100.00;101462.72;5013340;28;20061;-70
2023/07/13 05:43:14;;;;;;;19.38;8.25;;;;;;;15.84;100.00;101457.72;5031093;28;20044;-70
2023/07/13 05:45:40;;;;;;;26.17;9.23;;;;;;;15.93;100.00;101472.56;5030903;28;20049;-70
2023/07/13 05:48:05;;;;;;;24.52;10.15;;;;;;;15.97;100.00;101471.06;5030971;28;20080;-70
2023/07/13 05:50:31;;;;;;;21.48;8.95;;;;;;;16.01;100.00;101469.63;5030970;28;20035;-70
2023/07/13 05:52:57;;;;;;;26.40;9.70;;;;;;;15.99;100.00;101471.69;5031005;28;20091;-70
2023/07/13 05:55:22;;;;;;;23.27;7.97;;;;;;;15.99;100.00;101469.81;5031003;28;20029;-70
2023/07/13 05:57:48;;;;;;;22.27;9.80;;;;;;;16.08;100.00;101473.06;5012770;28;20053;-70
2023/07/13 06:00:14;;;;;;;23.85;9.85;;;;;;;16.16;100.00;101488.13;5013071;28;20056;-70
2023/07/13 06:02:39;;;;;;;24.20;9.45;;;;;;;16.23;100.00;101488.09;5030582;28;20040;-70
2023/07/13 06:05:05;;;;;;;23.73;9.73;;;;;;;16.28;100.00;101477.50;5012804;28;20115;-70
2023/07/13 06:07:30;;;;;;;20.15;9.15;;;;;;;16.37;100.00;101495.84;5030800;28;20075;-70
2023/07/13 06:09:55;;;;;;;22.23;8.75;;;;;;;16.37;100.00;101498.53;5030431;28;20503;-70
2023/07/13 06:12:21;;;;;;;22.60;9.45;;;;;;;16.39;100.00;101507.19;5030998;28;20388;-71
2023/07/13 06:14:46;;;;;;;22.58;10.55;;;;;;;16.40;100.00;101499.94;5049649;28;20029;-76
2023/07/13 06:17:12;;;;;;;23.60;9.52;;;;;;;16.39;100.00;101498.31;5033102;28;20488;-70
2023/07/13 06:19:38;;;;;;;27.52;8.73;;;;;;;16.37;100.00;101500.38;5019137;28;20069;-69
2023/07/13 06:22:03;;;;;;;25.13;10.35;;;;;;;16.38;100.00;101500.19;5033460;28;20044;-72
2023/07/13 06:24:29;;;;;;;23.40;9.90;;;;;;;16.42;100.00;101509.44;5030136;28;20491;-72
2023/07/13 06:26:54;;;;;;;22.85;10.60;;;;;;;16.55;100.00;101505.00;5031206;28;20033;-72
2023/07/13 06:29:19;;;;;;;21.98;8.88;;;;;;;16.68;100.00;101509.47;5031453;28;20071;-72
2023/07/13 06:31:45;;;;;;;22.98;9.38;;;;;;;16.75;100.00;101504.84;5041030;28;20123;-73
2023/07/13 06:34:10;;;;;;;22.65;9.50;;;;;;;16.78;100.00;101499.03;5039996;28;20080;-72
2023/07/13 06:36:36;;;;;;;24.67;9.48;;;;;;;16.98;100.00;101505.06;5031279;28;20040;-72
2023/07/13 06:39:02;;;;;;;21.45;11.05;;;;;;;16.99;100.00;101516.66;5044245;28;20037;-73
2023/07/13 06:41:28;;;;;;;28.38;10.82;;;;;;;17.02;100.00;101516.19;5029999;28;20017;-72
2023/07/13 06:43:53;;;;;;;18.80;9.35;;;;;;;17.11;100.00;101516.72;5030128;28;20332;-72
2023/07/13 06:46:21;;;;;;;21.58;9.52;;;;;;;17.13;100.00;101520.84;4996100;28;20496;-71
2023/07/13 06:48:46;;;;;;;21.35;10.35;;;;;;;17.15;100.00;101526.84;5030093;28;20030;-72
2023/07/13 06:51:12;;;;;;;19.90;8.45;;;;;;;17.18;100.00;101518.31;5034684;28;20057;-72
2023/07/13 06:53:37;;;;;;;23.52;8.55;;;;;;;17.19;100.00;101533.44;5048948;28;20025;-72
2023/07/13 06:56:02;;;;;;;21.65;9.70;;;;;;;17.24;100.00;101528.22;5048683;28;20029;-72
2023/07/13 06:58:28;;;;;;;25.35;9.65;;;;;;;17.17;100.00;101523.94;5048838;28;20056;-71
2023/07/13 07:00:53;;;;;;;21.77;9.93;;;;;;;17.21;100.00;101531.38;5048639;28;20094;-72
2023/07/13 07:03:19;;;;;;;25.38;10.55;;;;;;;17.17;100.00;101526.63;5048749;28;20043;-71
2023/07/13 07:05:44;;;;;;;19.92;9.60;;;;;;;17.17;100.00;101537.41;5030630;28;20072;-72
2023/07/13 07:08:09;;;;;;;24.70;10.85;;;;;;;17.24;100.00;101532.78;5030834;28;20510;-74
2023/07/13 07:10:35;;;;;;;17.73;9.25;;;;;;;17.33;100.00;101536.81;5048646;28;20033;-71
2023/07/13 07:13:01;;;;;;;21.02;9.52;;;;;;;17.34;100.00;101529.53;5048957;28;20519;-73
2023/07/13 07:15:26;;;;;;;23.95;8.75;;;;;;;17.39;100.00;101537.78;5048636;28;20472;-73
2023/07/13 07:17:52;;;;;;;20.52;8.68;;;;;;;17.37;100.00;101535.34;5048727;28;20025;-73
2023/07/13 07:20:17;;;;;;;24.05;9.90;;;;;;;17.43;100.00;101541.69;5048743;28;20090;-72
2023/07/13 07:22:43;;;;;;;19.35;9.10;;;;;;;17.45;100.00;101551.22;5042399;28;20161;-73
2023/07/13 07:25:08;;;;;;;21.90;8.95;;;;;;;17.47;100.00;101551.78;5029630;28;20566;-72
2023/07/13 07:27:34;;;;;;;23.05;10.73;;;;;;;17.46;100.00;101549.31;5028868;28;20504;-72
2023/07/13 07:29:59;;;;;;;20.15;9.18;;;;;;;17.42;100.00;101548.97;5029662;28;20037;-72
2023/07/13 07:32:25;;;;;;;21.90;8.82;;;;;;;17.46;100.00;101543.94;5029473;28;21667;-72
2023/07/13 07:34:50;;;;;;;22.10;9.45;;;;;;;17.57;100.00;101545.88;5042351;28;20468;-68
2023/07/13 07:37:16;;;;;;;24.58;9.77;;;;;;;17.69;100.00;101543.25;5047832;28;20120;-69
2023/07/13 07:39:43;;;;;;;17.42;8.50;;;;;;;17.84;100.00;101551.81;5048352;28;20519;-70
2023/07/13 07:42:09;;;;;;;21.65;10.15;;;;;;;17.92;99.99;101545.22;5047831;28;20025;-69
2023/07/13 07:44:34;;;;;;;23.70;10.07;;;;;;;17.99;98.91;101555.97;5047796;28;20078;-68
2023/07/13 07:47:00;;;;;;;25.42;9.07;;;;;;;17.95;99.16;101551.03;5047522;28;20025;-69
2023/07/13 07:49:26;;;;;;;19.98;11.05;;;;;;;18.01;100.00;101557.38;5027625;28;20037;-67
2023/07/13 07:51:52;;;;;;;16.33;8.45;;;;;;;18.06;98.24;101562.09;5028617;28;21062;-71
2023/07/13 07:54:17;;;;;;;18.60;7.97;;;;;;;18.02;98.66;101558.19;5028855;28;20545;-70
2023/07/13 07:56:43;;;;;;;18.65;8.80;;;;;;;18.02;99.47;101552.78;5028708;28;20099;-70
2023/07/13 07:59:08;;;;;;;18.05;9.10;;;;;;;18.02;98.42;101561.72;5028259;28;20025;-70
2023/07/13 08:01:34;;;;;;;20.38;9.18;;;;;;;18.07;98.58;101561.84;5044989;28;20013;-69
2023/07/13 08:03:59;;;;;;;22.45;9.05;;;;;;;18.29;98.08;101556.78;5047462;28;20033;-68
2023/07/13 08:06:24;;;;;;;17.52;7.45;;;;;;;18.42;97.15;101560.31;5047661;28;20496;-69
2023/07/13 08:08:50;;;;;;;21.98;9.32;;;;;;;18.50;96.08;101557.28;5048056;28;20055;-70
2023/07/13 08:11:17;;;;;;;19.33;7.93;;;;;;;18.51;95.17;101562.44;5047941;28;20653;-68
2023/07/13 08:13:42;;;;;;;14.63;7.40;;;;;;;18.89;93.81;101553.13;5047879;28;20025;-69
2023/07/13 08:16:08;;;;;;;19.52;7.75;;;;;;;19.24;92.97;101560.41;5047454;28;20028;-70
2023/07/13 08:18:33;;;;;;;19.77;6.97;;;;;;;19.33;92.00;101558.16;5047918;28;20624;-69
2023/07/13 08:21:03;;;;;;;18.98;7.57;;;;;;;19.25;90.11;101564.75;5030285;28;20034;-70
2023/07/13 08:23:28;;;;;;;15.50;7.72;;;;;;;19.25;90.61;101562.84;5028028;28;20025;-71
2023/07/13 08:25:54;;;;;;;17.55;7.57;;;;;;;19.15;87.72;101554.53;5027874;28;20037;-71
2023/07/13 08:28:21;;;;;;;17.33;6.80;;;;;;;19.40;86.85;101559.66;5029839;28;20037;-69
2023/07/13 08:30:50;;;;;;;18.35;7.05;;;;;;;20.28;82.98;101564.94;5047732;28;20063;-69
2023/07/13 08:33:17;;;;;;;19.30;7.72;;;;;;;21.02;79.98;101557.47;5039439;28;20025;-70
2023/07/13 08:35:46;;;;;;;15.55;6.43;;;;;;;22.41;75.58;101564.56;5039691;28;20056;-73
2023/07/13 08:38:12;;;;;;;10.93;5.13;;;;;;;23.86;68.10;101570.63;5028660;28;20029;-73
2023/07/13 08:40:39;;;;;;;15.38;5.53;;;;;;;25.36;62.46;101566.53;5032102;28;20029;-73
2023/07/13 08:43:04;;;;;;;10.18;4.63;;;;;;;26.27;56.94;101580.00;5032175;28;20121;-73
2023/07/13 08:45:56;;;;;;;10.60;4.57;;;;;;;26.74;59.00;101569.53;5032396;28;20116;-73
2023/07/13 08:48:33;;;;;;;15.70;5.53;;;;;;;27.00;55.29;101568.16;5021444;28;20072;-73
2023/07/13 08:51:38;;;;;;;11.10;4.57;;;;;;;27.34;54.54;101566.44;5031644;28;20096;-73
2023/07/13 08:54:12;;;;;;;14.23;5.60;;;;;;;26.27;55.45;101570.97;5032117;28;20053;-73
2023/07/13 08:56:37;;;;;;;12.80;5.45;;;;;;;24.74;56.40;101564.19;5032111;28;20030;-73
2023/07/13 08:59:12;;;;;;;11.50;4.53;;;;;;;24.68;59.24;101553.28;5031625;28;20441;-73
2023/07/13 09:02:02;;;;;;;13.50;5.18;;;;;;;25.87;57.85;101562.75;5032018;28;20022;-72
2023/07/13 09:04:35;;;;;;;11.55;5.28;;;;;;;24.99;57.46;101553.22;5043836;28;20029;-73
2023/07/13 09:07:21;;;;;;;10.75;5.32;;;;;;;24.54;59.52;101559.56;5050824;28;20476;-73
2023/07/13 09:10:02;;;;;;;10.55;5.18;;;;;;;23.63;60.13;101565.34;5050906;28;20479;-73
2023/07/13 09:12:47;;;;;;;12.05;4.10;;;;;;;22.90;62.58;101570.66;5031586;28;20032;-73
2023/07/13 09:15:44;;;;;;;13.10;5.80;;;;;;;22.51;65.83;101562.75;5031611;28;20488;-73
2023/07/13 09:18:19;;;;;;;13.38;6.03;;;;;;;22.25;66.44;101558.97;5015532;28;20427;-73
2023/07/13 09:20:48;;;;;;;8.00;4.88;;;;;;;22.04;66.97;101552.50;5050394;28;20810;-73
2023/07/13 09:23:17;;;;;;;12.40;6.30;;;;;;;21.84;68.70;101555.81;5050747;28;20138;-72
2023/07/13 09:25:46;;;;;;;17.85;6.70;;;;;;;21.81;68.56;101559.03;5050506;28;20028;-73
2023/07/13 09:28:20;;;;;;;11.57;6.78;;;;;;;21.51;67.96;101545.94;5032476;28;20071;-72
2023/07/13 09:31:16;;;;;;;16.90;8.07;;;;;;;21.50;69.58;101552.44;5050412;28;20033;-73
2023/07/13 09:33:41;;;;;;;11.38;6.47;;;;;;;21.05;68.94;101550.72;5029486;28;20068;-72
2023/07/13 09:36:23;;;;;;;10.20;7.03;;;;;;;21.09;71.30;101543.72;5032443;28;20120;-72
2023/07/13 09:38:58;;;;;;;14.88;6.93;;;;;;;21.43;70.98;101539.06;5050419;28;20024;-73
2023/07/13 09:41:29;;;;;;;16.95;6.50;;;;;;;21.82;72.37;101552.56;5031058;28;20057;-73
2023/07/13 09:44:15;;;;;;;13.65;7.15;;;;;;;21.78;66.47;101545.16;5031243;28;20045;-72
2023/07/13 09:46:53;;;;;;;13.80;6.60;;;;;;;21.83;68.10;101547.94;5022645;28;20376;-73
2023/07/13 09:49:24;;;;;;;10.13;5.68;;;;;;;21.78;67.61;101545.16;5049851;28;20029;-71
2023/07/13 09:51:58;;;;;;;8.65;6.32;;;;;;;21.41;68.40;101551.25;5049332;28;20035;-72
2023/07/13 09:54:25;;;;;;;9.85;6.00;;;;;;;21.29;70.40;101555.94;5050148;28;20027;-72
2023/07/13 09:57:01;;;;;;;11.27;6.63;;;;;;;21.34;68.76;101556.81;5050003;28;20029;-72
2023/07/13 09:59:30;;;;;;;13.98;5.60;;;;;;;21.41;68.43;101545.81;5030809;28;20029;-72
2023/07/13 10:01:56;;;;;;;11.68;5.63;;;;;;;21.33;68.08;101551.66;5030853;28;20026;-72
2023/07/13 10:04:31;;;;;;;8.95;5.93;;;;;;;21.26;69.21;101554.53;5012891;28;20040;-72
2023/07/13 10:07:08;;;;;;;13.75;7.10;;;;;;;21.37;70.80;101545.44;5013016;28;20064;-73
2023/07/13 10:09:34;;;;;;;14.75;5.80;;;;;;;21.71;69.90;101558.91;5030630;28;20037;-72
2023/07/13 10:11:59;;;;;;;11.25;5.88;;;;;;;21.91;67.76;101555.63;5030698;28;20372;-72
2023/07/13 10:14:28;;;;;;;11.15;5.50;;;;;;;22.22;65.76;101562.22;5012881;28;20087;-73
2023/07/13 10:17:02;;;;;;;9.88;5.75;;;;;;;22.22;65.88;101572.28;5030627;28;20132;-73
2023/07/13 10:19:32;;;;;;;10.05;5.20;;;;;;;22.00;65.31;101558.69;5030728;28;20029;-72
2023/07/13 10:22:04;;;;;;;8.13;4.68;;;;;;;21.69;67.28;101555.63;5030370;28;20031;-73
2023/07/13 10:24:32;;;;;;;9.63;4.90;;;;;;;21.52;66.67;101555.72;5030534;28;20128;-72
2023/07/13 10:27:05;;;;;;;11.55;6.05;;;;;;;21.35;66.04;101560.34;5030509;28;20029;-73
2023/07/13 10:29:36;;;;;;;7.40;4.82;;;;;;;21.45;68.72;101552.34;5030223;28;20021;-73
2023/07/13 10:32:09;;;;;;;12.00;5.15;;;;;;;21.73;68.47;101559.50;5029928;28;20033;-72
2023/07/13 10:34:35;;;;;;;9.45;5.00;;;;;;;21.72;66.65;101555.16;5030360;28;20029;-72
2023/07/13 10:37:01;;;;;;;9.23;4.50;;;;;;;21.58;64.42;101546.56;5041841;28;20502;-71
2023/07/13 10:39:28;;;;;;;9.93;4.78;;;;;;;21.77;65.67;101566.06;5030248;28;20555;-72
2023/07/13 10:41:58;;;;;;;6.50;5.00;;;;;;;21.72;63.72;101552.44;5030254;28;20507;-73
2023/07/13 10:44:28;;;;;;;11.00;4.13;;;;;;;21.79;65.86;101547.59;5033137;28;20186;-68
2023/07/13 10:46:59;;;;;;;9.68;4.63;;;;;;;21.98;66.76;101550.81;5031152;28;20108;-71
2023/07/13 10:49:27;;;;;;;12.32;3.55;;;;;;;22.00;65.21;101558.69;5029862;28;20049;-71
2023/07/13 10:51:53;;;;;;;8.48;3.92;;;;;;;22.13;64.26;101563.72;5029742;28;20036;-73
2023/07/13 10:54:29;;;;;;;5.13;3.40;;;;;;;22.19;64.19;101570.88;5039705;28;20021;-70
2023/07/13 10:57:13;;;;;;;7.45;3.08;;;;;;;22.28;64.64;101577.47;5048540;28;20468;-70
2023/07/13 10:59:41;;;;;;;11.60;4.05;;;;;;;22.03;66.99;101586.19;5048700;28;20028;-70
2023/07/13 11:02:15;;;;;;;8.85;5.40;;;;;;;21.57;67.47;101591.06;5047933;28;20025;-72
2023/07/13 11:04:44;;;;;;;10.63;5.03;;;;;;;21.14;69.58;101597.22;5048576;28;20035;-70
2023/07/13 11:07:18;;;;;;;11.40;5.70;;;;;;;21.15;72.77;101605.13;5048414;28;20040;-70
2023/07/13 11:09:50;;;;;;;7.60;4.22;;;;;;;21.45;71.93;101612.88;5048477;28;20021;-70
2023/07/13 11:12:26;;;;;;;;;;;;;;;21.69;69.94;101622.69;5030545;28;20361;-70
2023/07/13 11:15:02;;;;;;;6.85;3.80;;;;;;;21.44;69.86;101611.25;5047600;28;19923;-72
2023/07/13 11:17:27;;;;;;;7.85;5.07;;;;;;;21.39;71.44;101613.91;5048785;28;20048;-72
2023/07/13 11:19:53;;;;;;;7.00;4.57;;;;;;;21.68;73.60;101608.31;5048574;28;20063;-72